Latest Weather Observations for Jacup

IDW60801

Issued at 11:54 pm WST Friday 28 February 2020 (issued every 10 minutes, with the page automatically refreshed every 10 minutes)

About weather observations | Map of weather stations | Latest weather observations for WA | Other Formats
Station Details ID: 010905 Name: JACUP Lat: -33.89 Lon: 119.11 Height: 305.0 m
Data from the previous 72 hours. | See also: Recent months at Jacup
Date/Time
WST
Temp
°C
App
Temp
°C
Dew
Point
°C
Rel
Hum
%
Delta-T
°C
Wind Press
QNH
hPa
Press
MSL
hPa
Rain since
9am
mm
Dir  Spd
km/h
Gust
km/h
Spd
kts
Gust
kts
28/11:30pm 19.9 16.4 16.5 81 2.1 NNE 30 41 16 22 1009.4 1008.2 11.0
28/11:00pm 19.7 16.4 16.9 84 1.7 N 30 44 16 24 1010.0 1008.8 11.0
28/10:30pm 19.4 16.1 17.0 86 1.5 N 30 39 16 21 1010.1 1008.9 11.0
28/10:00pm 19.4 16.6 17.2 87 1.4 N 28 35 15 19 1010.2 1009.1 11.0
28/09:30pm 19.7 17.0 17.5 87 1.4 NNE 28 39 15 21 1010.4 1009.3 11.0
28/09:00pm 19.5 16.4 17.6 89 1.2 NNE 30 46 16 25 1010.9 1009.7 11.0
28/08:30pm 20.0 18.0 17.4 85 1.6 NNE 24 35 13 19 1010.7 1009.5 10.6
28/08:00pm 20.0 17.5 17.0 83 1.8 NNE 26 39 14 21 1009.5 1008.3 10.6
28/07:30pm 20.0 17.2 17.2 84 1.7 NNE 28 39 15 21 1010.4 1009.3 10.6
28/07:00pm 20.1 16.5 17.7 86 1.5 NNE 33 43 18 23 1010.0 1008.8 10.4
28/06:30pm 20.8 19.8 18.0 84 1.8 NNE 20 28 11 15 1010.7 1009.5 10.2
28/06:00pm 20.9 19.8 18.7 87 1.4 NNE 22 30 12 16 1010.9 1009.7 10.2
28/05:30pm 20.8 20.1 18.7 88 1.3 NE 20 26 11 14 1010.6 1009.4 10.2
28/05:00pm 20.8 19.8 18.9 89 1.2 NE 22 32 12 17 1009.9 1008.7 10.0
28/04:30pm 20.7 19.5 19.2 91 1.0 NE 24 32 13 17 1010.2 1009.1 10.0
28/04:00pm 20.5 20.1 19.3 93 0.8 NE 20 28 11 15 1010.7 1009.5 10.0
28/03:30pm 20.6 21.2 19.4 93 0.8 NNE 15 20 8 11 1012.5 1011.3 9.4
28/03:00pm 20.7 22.6 19.7 94 0.6 NNE 9 13 5 7 1013.0 1011.8 8.2
28/02:30pm 20.7 21.3 19.5 93 0.8 N 15 20 8 11 1013.8 1012.7 7.6
28/02:00pm 20.9 22.4 19.7 93 0.8 NNE 11 17 6 9 1013.7 1012.6 6.8
28/01:30pm 20.6 21.9 19.3 92 0.8 N 11 15 6 8 1014.1 1012.9 6.2
28/01:00pm 20.8 21.2 19.1 90 1.1 NNW 15 24 8 13 1014.6 1013.4 4.6
28/12:30pm 21.2 22.3 19.7 91 1.0 NNW 13 17 7 9 1014.1 1012.9 3.4
28/12:00pm 20.6 20.1 19.1 91 1.0 NNW 20 28 11 15 1014.2 1013.0 3.0
28/11:30am 20.2 20.8 18.7 91 0.9 NNW 13 20 7 11 1014.3 1013.1 2.0
28/11:00am 20.4 21.4 18.7 90 1.1 NNW 11 17 6 9 1013.9 1012.8 1.0
28/10:30am 20.5 19.7 18.4 88 1.3 N 20 28 11 15 1013.1 1012.0 0.4
28/10:00am 20.8 22.1 19.3 91 1.0 NNE 11 15 6 8 1013.0 1011.8 0.4
28/09:30am 19.9 22.2 18.6 92 0.8 S 4 13 2 7 1013.5 1012.4 0.4
28/09:00am 19.4 20.5 17.9 91 0.9 WSW 9 17 5 9 1014.9 1013.7 6.2
28/08:30am 18.6 15.9 16.6 88 1.2 W 26 52 14 28 1015.9 1014.7 4.8
28/08:24am 19.2 17.0 17.0 87 1.4 W 24 52 13 28 1015.8 1014.6 3.8
28/08:17am 19.6 20.2 17.6 88 1.2 NNW 11 20 6 11 1014.2 1013.0 3.8
28/08:00am 19.3 20.1 17.4 89 1.2 NE 9 15 5 8 1012.1 1010.9 3.8
28/07:30am 18.7 19.3 16.9 89 1.1 ENE 9 15 5 8 1011.9 1010.7 3.8
28/07:00am 18.1 17.9 16.8 92 0.8 ENE 13 19 7 10 1011.6 1010.4 3.8
28/06:30am 17.4 16.3 16.4 94 0.6 NE 17 24 9 13 1012.2 1011.0 3.8
28/06:00am 16.4 14.9 15.4 94 0.6 NE 17 22 9 12 1012.7 1011.5 3.8
28/05:30am 15.5 14.2 14.7 95 0.5 NE 15 20 8 11 1013.2 1012.1 3.8
28/05:00am 14.8 12.8 14.0 95 0.5 ENE 17 20 9 11 1012.9 1011.7 3.8
28/04:30am 14.7 13.5 13.9 95 0.5 E 13 17 7 9 1013.5 1012.4 3.8
28/04:00am 14.6 13.0 13.8 95 0.5 ENE 15 22 8 12 1013.5 1012.4 3.8
28/03:30am 14.6 13.7 13.8 95 0.5 E 11 15 6 8 1014.1 1012.9 3.8
28/03:00am 14.8 13.6 14.0 95 0.5 E 13 20 7 11 1013.7 1012.6 3.8
28/02:30am 14.9 13.4 14.1 95 0.5 ENE 15 20 8 11 1014.3 1013.1 3.8
28/02:00am 15.1 14.4 14.3 95 0.5 E 11 15 6 8 1014.8 1013.6 3.8
28/01:30am 15.2 13.4 14.4 95 0.5 ENE 17 24 9 13 1014.3 1013.1 3.8
28/01:00am 15.3 12.9 14.5 95 0.5 NE 20 28 11 15 1015.0 1013.8 3.8
28/12:30am 15.4 12.3 14.6 95 0.5 ENE 24 35 13 19 1014.9 1013.7 3.8
28/12:00am 15.6 13.5 14.8 95 0.5 ESE 19 26 10 14 1015.2 1014.0 3.8
 
Date/Time
WST
Temp
°C
App
Temp
°C
Dew
Point
°C
Rel
Hum
%
Delta-T
°C
Wind Press
QNH
hPa
Press
MSL
hPa
Rain since
9am
mm
Dir  Spd
km/h
Gust
km/h
Spd
kts
Gust
kts
27/11:30pm 15.8 13.6 15.0 95 0.5 E 20 30 11 16 1015.8 1014.6 3.8
27/11:26pm 15.8 12.9 15.0 95 0.5 E 24 33 13 18 1015.4 1014.2 3.8
27/11:00pm 15.8 11.3 15.0 95 0.5 E 32 44 17 24 1013.3 1012.2 3.8
27/10:56pm 15.9 11.5 15.1 95 0.5 ENE 32 41 17 22 1013.3 1012.2 3.8
27/10:47pm 15.9 12.6 15.1 95 0.5 NE 26 37 14 20 1015.4 1014.2 3.6
27/10:30pm 16.0 13.9 15.2 95 0.5 NE 20 30 11 16 1017.5 1016.3 3.6
27/10:00pm 15.9 14.0 15.1 95 0.5 ENE 19 28 10 15 1017.1 1016.0 3.6
27/09:30pm 16.1 12.9 15.3 95 0.5 E 26 39 14 21 1016.1 1015.0 3.6
27/09:00pm 16.4 14.6 15.4 94 0.6 E 19 24 10 13 1017.0 1015.9 3.4
27/08:30pm 16.6 15.6 15.6 94 0.6 E 15 20 8 11 1017.6 1016.4 3.4
27/08:00pm 16.7 15.4 15.7 94 0.6 ENE 17 30 9 16 1017.8 1016.6 3.4
27/07:30pm 16.8 15.0 16.0 95 0.5 ENE 20 30 11 16 1016.4 1015.3 3.4
27/07:00pm 16.9 14.4 16.1 95 0.5 ENE 24 33 13 18 1015.6 1014.4 3.4
27/06:30pm 17.0 15.3 16.2 95 0.5 NE 20 26 11 14 1017.3 1016.2 3.2
27/06:00pm 17.1 13.9 16.3 95 0.5 ENE 28 39 15 21 1016.4 1015.3 3.2
27/05:30pm 17.2 15.5 16.2 94 0.6 E 20 30 11 16 1017.1 1016.0 3.2
27/05:00pm 17.3 16.2 16.3 94 0.6 E 17 28 9 15 1018.0 1016.8 2.8
27/04:30pm 17.5 16.8 16.5 94 0.6 E 15 20 8 11 1018.3 1017.1 2.2
27/04:00pm 17.5 16.4 16.4 93 0.7 E 17 24 9 13 1018.3 1017.1 1.6
27/03:30pm 17.5 16.3 16.2 92 0.8 E 17 24 9 13 1018.5 1017.3 0.6
27/03:00pm 17.6 15.8 15.9 90 1.0 E 20 32 11 17 1018.0 1016.8 0.4
27/02:30pm 17.8 16.3 15.4 86 1.4 ENE 17 24 9 13 1018.6 1017.4 0.2
27/02:00pm 17.9 16.6 14.8 82 1.8 ESE 15 22 8 12 1019.0 1017.9 0.2
27/01:30pm 18.8 16.4 14.3 75 2.6 ENE 20 30 11 16 1018.9 1017.8 0.0
27/01:00pm 19.0 15.3 13.8 72 3.0 ENE 26 35 14 19 1018.9 1017.8 0.0
27/12:30pm 19.2 16.9 14.0 72 3.0 E 19 26 10 14 1019.3 1018.2 0.0
27/12:00pm 18.6 16.2 13.9 74 2.7 ENE 19 24 10 13 1019.5 1018.4 0.0
27/11:30am 18.6 16.6 13.9 74 2.7 ENE 17 20 9 11 1020.4 1019.3 0.0
27/11:00am 18.7 17.1 14.0 74 2.7 ENE 15 22 8 12 1020.3 1019.2 0.0
27/10:30am 18.5 16.0 14.0 75 2.6 ENE 20 30 11 16 1019.3 1018.2 0.0
27/10:00am 18.2 15.6 13.9 76 2.5 E 20 30 11 16 1018.9 1017.8 0.0
27/09:30am 18.0 15.4 13.7 76 2.5 ENE 20 28 11 15 1019.4 1018.3 0.0
27/09:00am 17.5 14.5 13.6 78 2.2 E 22 32 12 17 1019.4 1018.3 0.2
27/08:30am 17.0 13.6 13.7 81 1.9 ENE 24 35 13 19 1019.5 1018.4 0.2
27/08:00am 16.4 12.3 13.7 84 1.5 ENE 28 44 15 24 1019.1 1018.0 0.2
27/07:30am 16.0 12.6 13.8 87 1.3 E 24 33 13 18 1019.5 1018.4 0.2
27/07:00am 15.7 13.1 13.9 89 1.0 E 20 28 11 15 1019.3 1018.2 0.2
27/06:30am 15.7 13.2 14.2 91 0.9 E 20 33 11 18 1019.1 1018.0 0.2
27/06:00am 15.6 13.4 14.5 93 0.6 E 19 28 10 15 1019.8 1018.7 0.2
27/05:30am 15.7 13.6 14.7 94 0.6 E 19 26 10 14 1019.6 1018.5 0.2
27/05:00am 15.9 14.6 14.9 94 0.6 E 15 20 8 11 1019.8 1018.7 0.2
27/04:30am 16.1 15.3 15.1 94 0.6 ENE 13 20 7 11 1020.0 1018.9 0.2
27/04:00am 16.2 15.1 15.2 94 0.6 E 15 20 8 11 1019.9 1018.8 0.2
27/03:30am 16.1 14.9 15.1 94 0.6 ENE 15 24 8 13 1019.7 1018.6 0.2
27/03:00am 16.1 14.0 15.1 94 0.6 E 20 32 11 17 1019.0 1017.9 0.2
27/02:30am 16.2 14.1 15.2 94 0.6 E 20 28 11 15 1018.7 1017.5 0.2
27/02:00am 16.4 14.6 15.4 94 0.6 E 19 30 10 16 1019.1 1018.0 0.0
27/01:30am 16.2 15.0 15.1 93 0.6 ESE 15 20 8 11 1018.8 1017.6 0.0
27/01:00am 16.2 14.2 14.9 92 0.8 E 19 28 10 15 1018.4 1017.2 0.0
27/12:30am 16.4 14.1 14.6 89 1.0 ESE 20 30 11 16 1018.1 1016.9 0.0
27/12:00am 17.0 14.8 15.0 88 1.2 ESE 20 30 11 16 1018.5 1017.3 0.0
 
Date/Time
WST
Temp
°C
App
Temp
°C
Dew
Point
°C
Rel
Hum
%
Delta-T
°C
Wind Press
QNH
hPa
Press
MSL
hPa
Rain since
9am
mm
Dir  Spd
km/h
Gust
km/h
Spd
kts
Gust
kts
26/11:30pm 16.6 14.0 14.8 89 1.1 ESE 22 33 12 18 1019.4 1018.3 0.0
26/11:00pm 16.6 14.4 14.4 87 1.3 ESE 19 28 10 15 1020.2 1019.1 0.0
26/10:30pm 16.7 14.5 14.5 87 1.3 SE 19 26 10 14 1020.5 1019.4 0.0
26/10:00pm 16.8 14.7 14.6 87 1.3 E 19 26 10 14 1020.7 1019.6 0.0
26/09:30pm 16.6 14.3 14.6 88 1.2 E 20 28 11 15 1020.6 1019.5 0.0
26/09:00pm 16.5 14.1 14.3 87 1.3 ESE 20 30 11 16 1020.7 1019.6 0.0
26/08:30pm 16.5 13.5 13.8 84 1.5 E 22 33 12 18 1020.5 1019.4 0.0
26/08:00pm 16.7 13.9 13.2 80 2.0 ESE 20 28 11 15 1020.9 1019.7 0.0
26/07:30pm 17.0 14.4 13.3 79 2.1 ESE 19 28 10 15 1021.2 1020.0 0.0
26/07:00pm 17.3 14.7 13.2 77 2.3 ESE 19 26 10 14 1020.5 1019.4 0.0
26/06:30pm 17.9 15.2 13.4 75 2.6 ESE 20 28 11 15 1020.2 1019.1 0.0
26/06:00pm 18.6 15.5 13.5 72 2.9 SE 22 30 12 16 1020.2 1019.1 0.0
26/05:30pm 19.3 16.7 13.7 70 3.2 SE 20 28 11 15 1020.0 1018.9 0.0
26/05:00pm 20.2 17.8 13.9 67 3.7 ESE 19 26 10 14 1019.9 1018.8 0.0
26/04:30pm 20.7 18.4 14.1 66 3.9 ESE 19 26 10 14 1020.0 1018.9 0.0
26/04:00pm 20.2 17.6 13.9 67 3.7 ESE 20 26 11 14 1020.0 1018.9 0.0
26/03:30pm 20.4 17.8 13.8 66 3.9 ESE 20 28 11 15 1020.0 1018.9 0.0
26/03:00pm 21.0 18.4 13.9 64 4.2 ESE 20 30 11 16 1020.0 1018.9 0.0
26/02:30pm 21.2 18.1 14.6 66 3.9 ESE 24 37 13 20 1019.4 1018.3 0.0
26/02:00pm 21.2 17.7 14.4 65 4.0 E 26 39 14 21 1019.2 1018.1 0.0
26/01:30pm 20.8 16.8 14.2 66 3.9 E 28 43 15 23 1019.3 1018.2 0.0
26/01:00pm 20.5 17.3 14.2 67 3.7 ESE 24 35 13 19 1019.9 1018.8 0.0
26/12:30pm 20.5 18.1 14.4 68 3.6 ESE 20 33 11 18 1020.2 1019.1 0.0
26/12:00pm 19.2 16.2 13.6 70 3.2 E 22 33 12 18 1019.8 1018.7 0.0
26/11:30am 19.1 16.2 14.1 73 2.9 ESE 22 33 12 18 1020.3 1019.2 0.0
26/11:00am 19.2 16.4 14.2 73 2.9 E 22 30 12 16 1020.7 1019.6 0.0
26/10:30am 18.3 14.7 13.2 72 2.9 ESE 24 33 13 18 1021.1 1019.9 0.0
26/10:00am 18.0 14.9 13.5 75 2.6 E 22 32 12 17 1021.4 1020.2 0.0
26/09:30am 17.7 14.5 13.2 75 2.6 E 22 30 12 16 1021.4 1020.2 0.0
26/09:00am 17.4 13.4 13.1 76 2.4 E 26 35 14 19 1021.6 1020.4 1.0
26/08:30am 16.5 12.4 12.7 78 2.1 E 26 37 14 20 1021.5 1020.3 1.0
26/08:00am 16.3 13.4 12.8 80 2.0 E 20 32 11 17 1021.7 1020.6 1.0
26/07:30am 15.9 13.0 12.8 82 1.7 E 20 30 11 16 1021.5 1020.3 1.0
26/07:00am 15.6 12.6 12.7 83 1.6 E 20 28 11 15 1021.3 1020.1 1.0
26/06:30am 15.4 12.4 12.5 83 1.6 ESE 20 28 11 15 1020.6 1019.5 1.0
26/06:00am 15.3 12.6 13.0 86 1.3 ESE 19 24 10 13 1020.5 1019.4 1.0
26/05:30am 15.3 12.5 13.3 88 1.1 ESE 20 28 11 15 1020.0 1018.9 1.0
26/05:00am 15.3 13.2 13.5 89 1.0 ESE 17 24 9 13 1019.8 1018.7 1.0
26/04:30am 15.3 12.9 13.7 90 0.9 ESE 19 24 10 13 1019.9 1018.8 1.0
26/04:00am 15.2 12.6 13.9 92 0.7 ESE 20 32 11 17 1019.4 1018.3 1.0
26/03:30am 15.2 12.9 14.1 93 0.6 ESE 19 28 10 15 1019.4 1018.3 1.0
26/03:00am 15.1 12.8 14.0 93 0.6 ESE 19 24 10 13 1019.5 1018.4 1.0
26/02:30am 15.2 13.7 14.2 94 0.6 ESE 15 20 8 11 1020.0 1018.9 1.0
26/02:00am 15.1 13.2 14.1 94 0.6 ESE 17 20 9 11 1020.0 1018.9 1.0
26/01:30am 15.0 13.1 14.2 95 0.5 ESE 17 26 9 14 1020.0 1018.9 1.0
26/01:00am 15.1 13.6 14.3 95 0.5 ESE 15 20 8 11 1020.7 1019.6 1.0
26/12:30am 15.1 13.2 14.3 95 0.5 ESE 17 22 9 12 1021.1 1019.9 0.8
26/12:00am 15.1 13.6 14.3 95 0.5 ESE 15 19 8 10 1021.3 1020.1 0.8

Other formats

Comma delimited format used in spreadsheet applications
http://www.bom.gov.au/fwo/IDW60801/IDW60801.95636.axf

JavaScript Object Notation format (JSON) in row-major order
http://www.bom.gov.au/fwo/IDW60801/IDW60801.95636.json

Data quality

Most of these data are generated automatically and are frequently updated. Quality checks on data are not normally performed. It is possible for incorrect values to appear. Refer to information at About Latest Weather Observations and please check the disclaimer before using these data.